• Join FlightAware (Why Join?)
  • Login
  • US Flag 
06:47PM EST


 

Airport Tracker/Info


-or-


 

Live Flight TrackerFlight Track Log ✈ JST953 ✈ 29-Aug-2013 ✈ YBCS / CNS - YSSY / SYD

Flight Track Log - Related Links

Times and Time Zones

All times are in EDT time to prevent confusion due to time zone crossing. See the JST953 flight status page for this flight to view local times or setup timezone preferences in your user account.

Time Position Orientation Groundspeed Altitude Reporting Facility
EDT Latitude Longitude Course Direction KTS MPH feet Rate Location/Type
04:50PM -16.8992 145.7709 49° Northeast 168 193 1,800  Level Aus ATC (RADAR)
04:51PM -16.8890 145.7830 39° Northeast 164 189 2,300 1,980 Climbing FlightAware
04:51PM -16.8760 145.7930 36° Northeast 150 173 3,200 1,800 Climbing FlightAware
04:51PM -16.8640 145.8030 39° Northeast 180 207 3,500 900 Climbing FlightAware
04:52PM -16.8500 145.8140 37° Northeast 203 234 3,800 960 Climbing FlightAware
04:52PM -16.8440 145.8230 55° Northeast 225 259 4,000 780 Climbing FlightAware
04:52PM -16.8420 145.8280 67° East 233 268 4,000 600 Level FlightAware
04:52PM -16.8420 145.8330 90° East 239 275 4,100 1,200 Climbing FlightAware
04:52PM -16.8500 145.8570 109° East 266 306 4,500 1,860 Climbing FlightAware
04:53PM -16.8650 145.8700 140° Southeast 273 314 5,200 3,420 Climbing FlightAware
04:53PM -16.8860 145.8820 151° Southeast 272 313 6,500 3,360 Climbing FlightAware
04:53PM -16.9110 145.8950 154° Southeast 290 334 7,500 2,580 Climbing FlightAware
04:54PM -16.9230 145.9020 151° Southeast 293 337 7,800 2,220 Climbing FlightAware
04:54PM -16.9480 145.9160 152° Southeast 313 360 8,600 3,000 Climbing FlightAware
04:54PM -16.9740 145.9320 150° Southeast 304 350 9,800 3,480 Climbing FlightAware
04:55PM -17.0090 145.9550 148° Southeast 302 348 11,500 2,100 Climbing FlightAware
04:55PM -17.0540 145.9830 149° Southeast 338 389 12,100 1,500 Climbing FlightAware
04:56PM -17.1120 146.0150 149° Southeast 347 399 13,400 2,100 Climbing FlightAware
04:56PM -17.1159 146.0163 149° Southeast 347 399 13,600 1,980 Climbing Aus ATC (RADAR)
04:56PM -17.1580 146.0340 158° South 363 418 14,400 1,980 Climbing FlightAware
04:57PM -17.2140 146.0580 158° South 369 425 15,700 2,280 Climbing FlightAware
04:58PM -17.2760 146.0850 157° South 364 419 17,300 1,980 Climbing FlightAware
04:58PM -17.3320 146.1090 158° South 369 425 18,200 1,620 Climbing FlightAware
04:59PM -17.3810 146.1300 158° South 381 438 19,100 1,680 Climbing FlightAware
04:59PM -17.4470 146.1580 158° South 383 441 20,200 1,320 Climbing FlightAware
05:00PM -17.4980 146.1800 158° South 398 458 20,700 1,320 Climbing FlightAware
05:01PM -17.5641 146.2088 158° South 408 470 21,700 1,320 Climbing Aus ATC (RADAR)
05:01PM -17.5690 146.2110 158° South 415 478 21,600 1,080 Descending FlightAware
05:01PM -17.6230 146.2340 158° South 419 482 22,300 1,740 Climbing FlightAware
05:02PM -17.6808 146.2587 158° South 414 476 23,400 1,680 Climbing Aus ATC (RADAR)
05:02PM -17.6850 146.2610 158° South 420 483 23,300 1,080 Descending FlightAware
05:02PM -17.7600 146.2930 158° South 417 480 24,200 1,320 Climbing FlightAware
05:03PM -17.8150 146.3160 158° South 421 484 24,900 1,740 Climbing FlightAware
05:03PM -17.8175 146.3177 158° South 427 491 25,100 1,200 Climbing Aus ATC (RADAR)
05:03PM -17.8780 146.3440 158° South 435 501 25,600 1,200 Climbing FlightAware
05:03PM -17.8822 146.3457 158° South 429 494 25,800 1,260 Climbing Aus ATC (RADAR)
05:04PM -17.9576 146.3786 158° South 438 504 26,500 780 Climbing Aus ATC (RADAR)
05:04PM -17.9690 146.3830 158° South 439 505 26,400 600 Descending FlightAware
05:05PM -18.0460 146.4160 158° South 456 525 27,000 840 Climbing FlightAware
05:05PM -18.1080 146.4430 158° South 457 526 27,400 1,020 Climbing FlightAware
05:05PM -18.1139 146.4458 158° South 458 527 27,600 1,020 Climbing Aus ATC (RADAR)
05:06PM -18.1790 146.4740 157° South 470 541 28,000 840 Climbing FlightAware
05:07PM -18.2490 146.5040 158° South 473 544 28,600 1,020 Climbing FlightAware
05:07PM -18.3410 146.5440 158° South 470 541 29,400 1,020 Climbing FlightAware
05:08PM -18.4110 146.5750 157° South 472 543 30,000 1,080 Climbing FlightAware
05:08PM -18.4850 146.6070 158° South 472 543 30,700 1,200 Climbing FlightAware
05:09PM -18.5550 146.6370 158° South 472 543 31,400 1,440 Climbing FlightAware
05:10PM -18.6290 146.6700 157° South 472 543 32,400 1,560 Climbing FlightAware
05:10PM -18.6970 146.6990 158° South 456 525 33,300 1,260 Climbing FlightAware
05:11PM -18.7670 146.7300 157° South 463 533 33,900 1,080 Climbing FlightAware
05:11PM -18.8390 146.7610 158° South 460 529 34,600 900 Climbing FlightAware
05:12PM -18.9060 146.7900 158° South 450 518 35,000 300 Climbing FlightAware
05:13PM -18.9680 146.8170 158° South 450 518 35,000  Level FlightAware
05:13PM -19.0470 146.8520 157° South 455 524 35,000  Level FlightAware
05:14PM -19.1070 146.8780 158° South 456 525 35,000  Level FlightAware
05:14PM -19.1850 146.9130 157° South 457 526 35,000  Level FlightAware
05:15PM -19.2440 146.9380 158° South 457 526 35,000  Level FlightAware
05:15PM -19.3060 146.9660 157° South 456 525 35,000  Level FlightAware
05:16PM -19.3800 146.9980 158° South 456 525 35,000 120 Level FlightAware
05:17PM -19.4632 147.0363 158° South 456 525 35,200  Climbing Aus ATC (RADAR)
05:17PM -19.4660 147.0360 158° South 455 524 35,000 -420 Descending FlightAware
05:17PM -19.5230 147.0610 158° South 455 524 35,000  Level FlightAware
05:18PM -19.5990 147.0950 157° South 454 522 35,000  Level FlightAware
05:19PM -19.6730 147.1270 158° South 455 524 35,000  Level FlightAware
05:19PM -19.7350 147.1550 157° South 456 525 35,000  Level FlightAware
05:20PM -19.8100 147.1870 158° South 454 522 35,000  Level FlightAware
05:20PM -19.8810 147.2090 164° South 450 518 35,000  Level FlightAware
05:21PM -19.9490 147.2270 166° South 451 519 35,000 120 Level FlightAware
05:22PM -20.0277 147.2475 166° South 447 514 35,200  Climbing Aus ATC (RADAR)
05:22PM -20.0320 147.2490 166° South 451 519 35,000 -300 Descending FlightAware
05:22PM -20.1140 147.2720 165° South 451 519 35,000  Level FlightAware
05:23PM -20.1860 147.2910 166° South 451 519 35,000  Level FlightAware
05:23PM -20.2540 147.3100 165° South 451 519 35,000  Level FlightAware
05:24PM -20.3290 147.3300 166° South 452 520 35,000  Level FlightAware
05:25PM -20.4000 147.3490 166° South 445 512 35,000  Level FlightAware
05:25PM -20.4680 147.3680 165° South 446 513 35,000  Level FlightAware
05:26PM -20.5400 147.3870 166° South 445 512 35,000 60 Level FlightAware
05:26PM -20.6140 147.4070 166° South 452 520 35,100  Climbing FlightAware
05:27PM -20.6860 147.4270 165° South 452 520 35,000 -120 Descending FlightAware
05:28PM -20.7510 147.4450 165° South 452 520 35,000  Level FlightAware
05:28PM -20.8290 147.4670 165° South 452 520 35,000  Level FlightAware
05:29PM -20.8970 147.4850 166° South 451 519 35,000  Level FlightAware
05:29PM -20.9740 147.5070 165° South 451 519 35,000  Level FlightAware
05:30PM -21.0360 147.5240 166° South 451 519 35,000  Level FlightAware
05:31PM -21.0980 147.5420 165° South 451 519 35,000 120 Level FlightAware
05:31PM -21.2013 147.5681 165° South 440 506 35,200  Climbing Aus ATC (RADAR)
05:31PM -21.1590 147.5600 165° South 451 519 35,000 -360 Descending FlightAware
05:32PM -21.2210 147.5770 166° South 451 519 35,000  Level FlightAware
05:32PM -21.2840 147.5960 164° South 451 519 35,000  Level FlightAware
05:33PM -21.3440 147.6130 165° South 451 519 35,000  Level FlightAware
05:34PM -21.4080 147.6310 165° South 451 519 35,000  Level FlightAware
05:34PM -21.5620 147.6670 168° South 445 512 35,000  Level FlightAware
05:35PM -21.6350 147.6880 165° South 445 512 35,000  Level FlightAware
05:35PM -21.7050 147.7070 166° South 445 512 35,000  Level FlightAware
05:36PM -21.7750 147.7260 166° South 446 513 35,000  Level FlightAware
05:37PM -21.8450 147.7460 165° South 444 511 35,000  Level FlightAware
05:37PM -21.9060 147.7630 165° South 443 510 35,000 360 Level FlightAware
05:37PM -21.9111 147.7654 165° South 439 505 35,200  Climbing Aus ATC (RADAR)
05:38PM -21.9780 147.7830 165° South 443 510 35,000  Descending FlightAware
05:38PM -21.9808 147.7850 165° South 442 509 35,200  Climbing Aus ATC (RADAR)
05:38PM -22.0500 147.8030 166° South 443 510 35,000  Descending FlightAware
05:39PM -22.1294 147.8261 166° South 435 501 35,200  Climbing Aus ATC (RADAR)
05:39PM -22.1380 147.8280 166° South 443 510 35,000 -300 Descending FlightAware
05:40PM -22.1990 147.8450 166° South 443 510 35,000  Level FlightAware
05:40PM -22.2590 147.8630 164° South 443 510 35,000  Level FlightAware
05:41PM -22.3220 147.8810 165° South 443 510 35,000 120 Level FlightAware
05:42PM -22.4576 147.9174 165° South 444 511 35,200  Climbing Aus ATC (RADAR)
05:42PM -22.3990 147.9030 165° South 443 510 35,000 -420 Descending FlightAware
05:42PM -22.5210 147.9340 165° South 445 512 35,000 300 Level FlightAware
05:42PM -22.5273 147.9367 165° South 444 511 35,200 300 Climbing Aus ATC (RADAR)
05:43PM -22.5969 147.9560 165° South 442 509 35,200 -300 Level Aus ATC (RADAR)
05:43PM -22.5930 147.9550 165° South 445 512 35,000 -240 Descending FlightAware
05:44PM -22.7090 147.9870 165° South 443 510 35,000 180 Level FlightAware
05:44PM -22.7259 147.9929 165° South 444 511 35,200  Climbing Aus ATC (RADAR)
05:44PM -22.7700 148.0050 165° South 443 510 35,000  Descending FlightAware
05:44PM -22.7946 148.0115 165° South 440 506 35,200 300 Climbing Aus ATC (RADAR)
05:45PM -22.8636 148.0310 165° South 441 507 35,200 -360 Level Aus ATC (RADAR)
05:45PM -22.8580 148.0290 165° South 441 507 35,000 -360 Descending FlightAware
05:46PM -22.9330 148.0500 166° South 440 506 35,000 180 Level FlightAware
05:46PM -22.9916 148.0672 166° South 440 506 35,200  Climbing Aus ATC (RADAR)
05:46PM -22.9990 148.0690 166° South 439 505 35,000 -300 Descending FlightAware
05:47PM -23.0590 148.0860 165° South 439 505 35,000  Level FlightAware
05:48PM -23.1710 148.1170 166° South 437 503 35,000  Level FlightAware
05:48PM -23.2500 148.1390 166° South 436 502 35,000  Level FlightAware
05:49PM -23.3140 148.1570 166° South 436 502 35,000 240 Level FlightAware
05:50PM -23.3923 148.1801 166° South 437 503 35,300  Climbing Aus ATC (RADAR)
05:50PM -23.3840 148.1780 166° South 436 502 35,000  Descending FlightAware
05:50PM -23.4606 148.1995 166° South 435 501 35,300  Climbing Aus ATC (RADAR)
05:50PM -23.4440 148.1950 166° South 436 502 35,000 -540 Descending FlightAware
05:51PM -23.5030 148.2120 165° South 436 502 35,000  Level FlightAware
05:51PM -23.5630 148.2300 165° South 436 502 35,000  Level FlightAware
05:52PM -23.6220 148.2470 165° South 436 502 35,000  Level FlightAware
05:53PM -23.6820 148.2650 165° South 436 502 35,000  Level FlightAware
05:53PM -23.7420 148.2820 165° South 436 502 35,000  Level FlightAware
05:54PM -23.8010 148.3000 164° South 436 502 35,000  Level FlightAware
05:54PM -23.8630 148.3180 165° South 436 502 35,000  Level FlightAware
05:55PM -23.9220 148.3350 165° South 436 502 35,000  Level FlightAware
05:56PM -23.9820 148.3520 165° South 436 502 35,000  Level FlightAware
05:56PM -24.0610 148.3760 164° South 436 502 35,000  Level FlightAware
05:57PM -24.1210 148.3930 166° South 436 502 35,000  Level FlightAware
05:58PM -24.1810 148.4110 165° South 436 502 35,000  Level FlightAware
05:58PM -24.2400 148.4280 165° South 436 502 35,000 240 Level FlightAware
05:59PM -24.4569 148.4849 165° South 430 495 35,300  Climbing Aus ATC (RADAR)
05:59PM -24.3010 148.4460 165° South 436 502 35,000  Descending FlightAware
05:59PM -24.5348 148.5071 165° South 433 498 35,300 240 Climbing Aus ATC (RADAR)
06:00PM -24.6122 148.5295 165° South 435 501 35,300  Level Aus ATC (RADAR)
06:02PM -24.8046 148.5853 165° South 429 494 35,300  Level Aus ATC (RADAR)
06:03PM -24.9012 148.6132 165° South 431 496 35,300  Level Aus ATC (RADAR)
06:03PM -24.9782 148.6359 165° South 431 496 35,300  Level Aus ATC (RADAR)
06:04PM -25.0456 148.6555 165° South 430 495 35,300  Level Aus ATC (RADAR)
06:04PM -25.1131 148.6752 165° South 431 496 35,300  Level Aus ATC (RADAR)
06:05PM -25.1801 148.6945 165° South 428 493 35,300  Level Aus ATC (RADAR)
06:06PM -25.2472 148.7142 165° South 428 493 35,300  Level Aus ATC (RADAR)
06:07PM -25.3820 148.7537 165° South 430 495 35,300  Level Aus ATC (RADAR)
06:08PM -25.4976 148.7876 165° South 430 495 35,300  Level Aus ATC (RADAR)
06:08PM -25.5746 148.8098 165° South 429 494 35,300  Level Aus ATC (RADAR)
06:09PM -25.6423 148.8298 165° South 431 496 35,300  Level Aus ATC (RADAR)
06:10PM -25.7102 148.8495 165° South 432 497 35,300  Level Aus ATC (RADAR)
06:10PM -25.7781 148.8693 165° South 433 498 35,300  Level Aus ATC (RADAR)
06:11PM -25.8461 148.8895 165° South 434 499 35,300  Level Aus ATC (RADAR)
06:12PM -26.0132 148.9395 165° South 442 509 35,300  Level Aus ATC (RADAR)
06:13PM -26.1308 148.9746 165° South 436 502 35,300  Level Aus ATC (RADAR)
06:14PM -26.2191 149.0004 165° South 439 505 35,300  Level Aus ATC (RADAR)
06:14PM -26.2878 149.0206 165° South 437 503 35,300  Level Aus ATC (RADAR)
06:15PM -26.3567 149.0414 165° South 437 503 35,300  Level Aus ATC (RADAR)
06:16PM -26.4254 149.0620 165° South 437 503 35,300  Level Aus ATC (RADAR)
06:17PM -26.6019 149.1199 164° South 447 514 35,300  Level Aus ATC (RADAR)
06:18PM -26.7199 149.1606 163° South 442 509 35,300  Level Aus ATC (RADAR)
06:19PM -26.7985 149.1878 163° South 442 509 35,300  Level Aus ATC (RADAR)
06:19PM -26.8671 149.2115 163° South 441 507 35,300  Level Aus ATC (RADAR)
06:20PM -26.9359 149.2349 163° South 441 507 35,300  Level Aus ATC (RADAR)
06:21PM -27.0241 149.2652 163° South 441 507 35,300  Level Aus ATC (RADAR)
06:22PM -27.2298 149.3365 163° South 439 505 35,300  Level Aus ATC (RADAR)
06:23PM -27.3375 149.3735 163° South 440 506 35,300  Level Aus ATC (RADAR)
06:24PM -27.4256 149.4040 163° South 440 506 35,300  Level Aus ATC (RADAR)
06:25PM -27.4936 149.4277 163° South 438 504 35,300  Level Aus ATC (RADAR)
06:25PM -27.5619 149.4512 163° South 438 504 35,300  Level Aus ATC (RADAR)
06:26PM -27.6299 149.4751 163° South 437 503 35,300  Level Aus ATC (RADAR)
06:27PM -27.7473 149.5157 163° South 440 506 35,300  Level Aus ATC (RADAR)
06:27PM -27.8053 149.5362 163° South 436 502 35,300  Level Aus ATC (RADAR)
06:28PM -27.8736 149.5604 163° South 439 505 35,300  Level Aus ATC (RADAR)
06:29PM -27.9607 149.5907 163° South 434 499 35,300  Level Aus ATC (RADAR)
06:30PM -28.0778 149.6316 163° South 437 503 35,300  Level Aus ATC (RADAR)
06:30PM -28.1642 149.6622 163° South 434 499 35,300  Level Aus ATC (RADAR)
06:31PM -28.2317 149.6858 163° South 432 497 35,300  Level Aus ATC (RADAR)
06:32PM -28.4069 149.7337 166° South 431 496 35,300  Level Aus ATC (RADAR)
06:33PM -28.5238 149.7679 166° South 432 497 35,300  Level Aus ATC (RADAR)
06:34PM -28.6116 149.7937 166° South 432 497 35,300  Level Aus ATC (RADAR)
06:35PM -28.6798 149.8135 166° South 431 496 35,300  Level Aus ATC (RADAR)
06:36PM -28.7769 149.8416 166° South 430 495 35,300  Level Aus ATC (RADAR)
06:38PM -29.0008 149.9077 166° South 431 496 35,300  Level Aus ATC (RADAR)
06:39PM -29.1177 149.9427 165° South 430 495 35,300  Level Aus ATC (RADAR)
06:39PM -29.1861 149.9627 166° South 433 498 35,300  Level Aus ATC (RADAR)
06:40PM -29.2541 149.9834 165° South 431 496 35,300  Level Aus ATC (RADAR)
06:41PM -29.3523 150.0123 166° South 433 498 35,300  Level Aus ATC (RADAR)
06:42PM -29.5481 150.0704 166° South 433 498 35,300  Level Aus ATC (RADAR)
06:43PM -29.6645 150.1052 165° South 430 495 35,300  Level Aus ATC (RADAR)
06:44PM -29.7522 150.1315 165° South 429 494 35,300  Level Aus ATC (RADAR)
06:45PM -29.8192 150.1524 165° South 426 490 35,300  Level Aus ATC (RADAR)
06:45PM -29.8888 150.1725 166° South 436 502 35,300  Level Aus ATC (RADAR)
06:46PM -29.9763 150.1991 165° South 434 499 35,300  Level Aus ATC (RADAR)
06:47PM -30.1231 150.2434 165° South 432 497 35,300  Level Aus ATC (RADAR)
06:48PM -30.2207 150.2729 165° South 431 496 35,300  Level Aus ATC (RADAR)
06:49PM -30.2894 150.2935 165° South 433 498 35,300  Level Aus ATC (RADAR)
06:49PM -30.3774 150.3201 165° South 432 497 35,300  Level Aus ATC (RADAR)
06:50PM -30.4459 150.3410 165° South 431 496 35,300  Level Aus ATC (RADAR)
06:51PM -30.5444 150.3708 165° South 436 502 35,300  Level Aus ATC (RADAR)
06:52PM -30.6927 150.4159 165° South 437 503 35,300  Level Aus ATC (RADAR)
06:52PM -30.7521 150.4343 165° South 436 502 35,300 60 Level Aus ATC (RADAR)
06:53PM -30.8713 150.4709 165° South 438 504 35,400  Climbing Aus ATC (RADAR)
06:54PM -30.9503 150.4955 165° South 436 502 35,300 -120 Descending Aus ATC (RADAR)
06:55PM -31.0294 150.5192 166° South 437 503 35,300  Level Aus ATC (RADAR)
06:56PM -31.1477 150.5556 165° South 435 501 35,300  Level Aus ATC (RADAR)
06:57PM -31.2963 150.6015 165° South 435 501 35,300 -240 Level Aus ATC (RADAR)
06:57PM -31.3320 150.6120 165° South 435 501 35,000 -420 Descending FlightAware
06:58PM -31.3890 150.6300 165° South 436 502 35,000 540 Level FlightAware
06:58PM -31.3957 150.6331 165° South 438 504 35,300  Climbing Aus ATC (RADAR)
06:58PM -31.4620 150.6520 165° South 435 501 35,000  Descending FlightAware
06:59PM -31.4750 150.6573 165° South 437 503 35,300  Climbing Aus ATC (RADAR)
06:59PM -31.5410 150.6770 165° South 437 503 35,000 -300 Descending FlightAware
07:00PM -31.6100 150.6980 165° South 446 513 35,000  Level FlightAware
07:00PM -31.6700 150.7170 165° South 447 514 35,000 240 Level FlightAware
07:01PM -31.7380 150.7389 165° South 449 517 35,300  Climbing Aus ATC (RADAR)
07:01PM -31.7400 150.7390 165° South 448 516 35,000 -540 Descending FlightAware
07:01PM -31.8110 150.7610 165° South 449 517 35,000  Level FlightAware
07:02PM -31.9010 150.7890 165° South 449 517 35,000 360 Level FlightAware
07:02PM -31.9045 150.7910 165° South 442 509 35,300  Climbing Aus ATC (RADAR)
07:03PM -31.9710 150.8120 164° South 448 516 35,000 -300 Descending FlightAware
07:03PM -32.0420 150.8320 167° South 441 507 35,000  Level FlightAware
07:04PM -32.1120 150.8450 171° South 437 503 35,000 -180 Level FlightAware
07:04PM -32.1790 150.8570 171° South 438 504 34,800 -720 Descending FlightAware
07:05PM -32.2500 150.8690 172° South 438 504 34,200 -1,440 Descending FlightAware
07:06PM -32.3298 150.8842 172° South 442 509 33,100 -2,100 Descending Aus ATC (RADAR)
07:06PM -32.3240 150.8820 172° South 442 509 32,900 -2,700 Descending FlightAware
07:06PM -32.3940 150.8940 172° South 438 504 31,600 -2,280 Descending FlightAware
07:07PM -32.4620 150.9070 171° South 436 502 30,400 -2,100 Descending FlightAware
07:07PM -32.5250 150.9180 172° South 422 486 29,200 -2,160 Descending FlightAware
07:08PM -32.5980 150.9310 171° South 426 490 27,900 -1,980 Descending FlightAware
07:08PM -32.6661 150.9437 171° South 424 488 27,000 -2,280 Descending Aus ATC (RADAR)
07:08PM -32.6700 150.9440 171° South 421 484 26,600 -2,340 Descending FlightAware
07:09PM -32.7331 150.9557 171° South 420 483 25,700 -2,280 Descending Aus ATC (RADAR)
07:09PM -32.7370 150.9560 171° South 407 468 25,300 -2,640 Descending FlightAware
07:10PM -32.7940 150.9660 171° South 409 471 24,300 -1,560 Descending FlightAware
07:10PM -32.8044 150.9678 171° South 401 461 24,400 -1,800 Climbing Aus ATC (RADAR)
07:10PM -32.8695 150.9794 171° South 396 456 23,100 -2,760 Descending Aus ATC (RADAR)
07:10PM -32.8680 150.9790 171° South 405 466 22,800 -1,860 Descending FlightAware
07:11PM -32.9120 150.9870 171° South 393 452 22,000 -1,920 Descending FlightAware
07:11PM -32.9974 151.0019 171° South 385 443 20,600 -3,000 Descending Aus ATC (RADAR)
07:11PM -32.9970 151.0020 171° South 394 453 20,300 -2,760 Descending FlightAware
07:12PM -33.0590 151.0130 172° South 390 449 19,000 -1,980 Descending FlightAware
07:12PM -33.1128 151.0228 172° South 377 434 18,200 -2,280 Descending Aus ATC (RADAR)
07:13PM -33.1220 151.0240 172° South 377 434 17,700 -2,400 Descending FlightAware
07:13PM -33.1780 151.0340 171° South 372 428 16,600 -2,040 Descending FlightAware
07:14PM -33.2390 151.0450 171° South 357 411 15,400 -2,220 Descending FlightAware
07:14PM -33.2980 151.0560 171° South 355 409 14,100 -2,160 Descending FlightAware
07:15PM -33.3520 151.0670 170° South 345 397 12,900 -1,980 Descending FlightAware
07:15PM -33.4090 151.0780 171° South 328 377 11,800 -1,680 Descending FlightAware
07:16PM -33.4555 151.0865 171° South 321 369 11,100 -1,920 Descending Aus ATC (RADAR)
07:16PM -33.4610 151.0880 171° South 328 377 10,700 -1,500 Descending FlightAware
07:17PM -33.5110 151.0970 171° South 290 334 10,100 -1,440 Descending FlightAware
07:17PM -33.5370 151.1020 171° South 279 321 9,400 -1,920 Descending FlightAware
07:17PM -33.5690 151.1090 170° South 278 320 8,700 -1,320 Descending FlightAware
07:18PM -33.5960 151.1140 171° South 280 322 8,400 -780 Descending FlightAware
07:18PM -33.6230 151.1190 171° South 279 321 8,200 -660 Descending FlightAware
07:18PM -33.6480 151.1240 171° South 279 321 8,000 -480 Descending FlightAware
07:19PM -33.6750 151.1290 171° South 281 323 7,900 -480 Descending FlightAware
07:19PM -33.7010 151.1370 166° South 288 331 7,700 -600 Descending FlightAware
07:19PM -33.7110 151.1450 146° Southeast 280 322 7,600 -420 Descending FlightAware
07:20PM -33.7290 151.1680 133° Southeast 285 328 7,500 -480 Descending FlightAware
07:20PM -33.7470 151.1910 133° Southeast 283 326 7,300 -420 Descending FlightAware
07:20PM -33.7660 151.2150 134° Southeast 280 322 7,200 -420 Descending FlightAware
07:21PM -33.7880 151.2420 134° Southeast 282 325 7,000 -660 Descending FlightAware
07:21PM -33.8040 151.2620 134° Southeast 283 326 6,800 -540 Descending FlightAware
07:21PM -33.8180 151.2790 135° Southeast 279 321 6,700 -720 Descending FlightAware
07:22PM -33.8440 151.2950 153° Southeast 278 320 6,400 -600 Descending FlightAware
07:22PM -33.8720 151.3020 168° South 277 319 6,300 -300 Descending FlightAware
07:22PM -33.8970 151.3080 169° South 282 325 6,200 -480 Descending FlightAware
07:23PM -33.9200 151.3140 168° South 282 325 6,000 -600 Descending FlightAware
07:23PM -33.9550 151.3230 168° South 283 326 5,800 -480 Descending FlightAware
07:23PM -33.9750 151.3280 168° South 284 327 5,700 -180 Descending FlightAware
07:24PM -34.0000 151.3350 167° South 281 323 5,700  Level FlightAware
07:24PM -34.0250 151.3410 169° South 278 320 5,700 -180 Level FlightAware
07:24PM -34.0500 151.3480 167° South 267 307 5,600 -1,200 Descending FlightAware
07:25PM -34.0760 151.3550 167° South 282 325 4,900 -1,740 Descending FlightAware
07:25PM -34.0920 151.3590 168° South 280 322 4,600 -1,380 Descending FlightAware
07:25PM -34.1190 151.3660 168° South 267 307 4,100 -1,380 Descending FlightAware
07:26PM -34.1460 151.3580 194° South 266 306 3,700 -1,020 Descending FlightAware
07:26PM -34.1540 151.3480 226° Southwest 264 304 3,600 -840 Descending FlightAware
07:26PM -34.1580 151.3420 231° Southwest 266 306 3,500 -1,140 Descending FlightAware
07:26PM -34.1610 151.3360 239° Southwest 263 303 3,400 -840 Descending FlightAware
07:26PM -34.1650 151.3220 251° West 254 292 3,300 -900 Descending FlightAware
07:26PM -34.1650 151.3150 270° West 249 287 3,200 -960 Descending FlightAware
07:26PM -34.1580 151.2910 289° West 226 260 2,900 -840 Descending FlightAware
07:27PM -34.1510 151.2810 310° West 212 244 2,800 -600 Descending FlightAware
07:27PM -34.1370 151.2660 318° Northwest 203 234 2,600 -720 Descending FlightAware
07:27PM -34.1190 151.2470 319° Northwest 196 226 2,300 -540 Descending FlightAware
07:28PM -34.1050 151.2330 320° Northwest 175 201 2,200 -420 Descending FlightAware
07:28PM -34.0980 151.2290 335° Northwest 176 203 2,100 -540 Descending FlightAware
07:28PM -34.0800 151.2220 342° North 151 174 1,900 -600 Descending FlightAware
07:29PM -34.0660 151.2190 350° North 146 168 1,700 -780 Descending FlightAware
07:29PM -34.0530 151.2150 346° North 136 157 1,400 -780 Descending FlightAware
07:29PM -34.0400 151.2120 349° North 130 150 1,200 -720 Descending FlightAware
07:30PM -34.0280 151.2090 348° North 130 150 900 -780 Descending FlightAware
07:30PM -34.0170 151.2060 347° North 131 151 700 -720 Descending FlightAware
07:30PM -34.0010 151.2020 348° North 131 151 400 -840 Descending FlightAware
07:31PM -33.9900 151.1990 347° North 132 152 100 -900 Descending FlightAware
07:31PM -33.9780 151.1960 348° North 129 148 -300 Descending FlightAware
07:31PM -33.9680 151.1930 346° North 132 152  Level FlightAware
07:32PM -33.9570 151.1900 347° North 72 83  Level FlightAware